sensor_id;sensor_type;location;lat;lon;timestamp;pressure;altitude;pressure_sealevel;temperature;humidity
804;BME280;25687;49.976;8.240;2023-03-21T00:00:14;100334.22;;;9.15;100.00
804;BME280;25687;49.976;8.240;2023-03-21T00:02:40;100327.69;;;9.08;100.00
804;BME280;25687;49.976;8.240;2023-03-21T00:05:06;100329.13;;;9.14;100.00
804;BME280;25687;49.976;8.240;2023-03-21T00:07:31;100318.31;;;9.07;100.00
804;BME280;25687;49.976;8.240;2023-03-21T00:09:58;100326.00;;;9.07;100.00
804;BME280;25687;49.976;8.240;2023-03-21T00:12:23;100316.38;;;9.12;100.00
804;BME280;25687;49.976;8.240;2023-03-21T00:14:48;100320.69;;;9.12;100.00
804;BME280;25687;49.976;8.240;2023-03-21T00:17:14;100327.81;;;9.05;100.00
804;BME280;25687;49.976;8.240;2023-03-21T00:19:40;100314.34;;;9.00;100.00
804;BME280;25687;49.976;8.240;2023-03-21T00:22:06;100319.13;;;9.08;100.00
804;BME280;25687;49.976;8.240;2023-03-21T00:24:32;100315.31;;;8.97;100.00
804;BME280;25687;49.976;8.240;2023-03-21T00:26:57;100317.25;;;8.92;100.00
804;BME280;25687;49.976;8.240;2023-03-21T00:29:23;100315.66;;;8.90;100.00
804;BME280;25687;49.976;8.240;2023-03-21T00:31:48;100307.97;;;8.90;100.00
804;BME280;25687;49.976;8.240;2023-03-21T00:34:13;100311.44;;;8.88;100.00
804;BME280;25687;49.976;8.240;2023-03-21T00:36:38;100306.09;;;8.93;100.00
804;BME280;25687;49.976;8.240;2023-03-21T00:39:04;100304.06;;;8.81;100.00
804;BME280;25687;49.976;8.240;2023-03-21T00:41:30;100300.84;;;8.76;100.00
804;BME280;25687;49.976;8.240;2023-03-21T00:43:56;100300.03;;;8.75;100.00
804;BME280;25687;49.976;8.240;2023-03-21T00:46:22;100297.94;;;8.64;100.00
804;BME280;25687;49.976;8.240;2023-03-21T00:48:47;100286.50;;;8.52;100.00
804;BME280;25687;49.976;8.240;2023-03-21T00:51:16;100289.41;;;8.43;100.00
804;BME280;25687;49.976;8.240;2023-03-21T00:53:45;100289.34;;;8.45;100.00
804;BME280;25687;49.976;8.240;2023-03-21T00:56:10;100287.31;;;8.53;100.00
804;BME280;25687;49.976;8.240;2023-03-21T00:58:36;100285.59;;;8.53;100.00
804;BME280;25687;49.976;8.240;2023-03-21T01:01:01;100294.25;;;8.51;100.00
804;BME280;25687;49.976;8.240;2023-03-21T01:03:28;100292.31;;;8.56;100.00
804;BME280;25687;49.976;8.240;2023-03-21T01:05:53;100286.94;;;8.62;100.00
804;BME280;25687;49.976;8.240;2023-03-21T01:08:30;100282.50;;;8.66;100.00
804;BME280;25687;49.976;8.240;2023-03-21T01:10:56;100281.47;;;8.70;100.00
804;BME280;25687;49.976;8.240;2023-03-21T01:13:23;100282.63;;;8.63;100.00
804;BME280;25687;49.976;8.240;2023-03-21T01:15:54;100278.91;;;8.49;100.00
804;BME280;25687;49.976;8.240;2023-03-21T01:18:23;100279.09;;;8.45;100.00
804;BME280;25687;49.976;8.240;2023-03-21T01:20:54;100275.13;;;8.37;100.00
804;BME280;25687;49.976;8.240;2023-03-21T01:23:20;100272.94;;;8.28;100.00
804;BME280;25687;49.976;8.240;2023-03-21T01:25:47;100268.94;;;8.22;100.00
804;BME280;25687;49.976;8.240;2023-03-21T01:28:13;100273.63;;;8.11;100.00
804;BME280;25687;49.976;8.240;2023-03-21T01:30:38;100268.28;;;7.97;100.00
804;BME280;25687;49.976;8.240;2023-03-21T01:33:03;100272.03;;;7.88;100.00
804;BME280;25687;49.976;8.240;2023-03-21T01:35:29;100268.22;;;7.76;100.00
804;BME280;25687;49.976;8.240;2023-03-21T01:37:54;100271.94;;;7.69;100.00
804;BME280;25687;49.976;8.240;2023-03-21T01:40:25;100271.88;;;7.70;100.00
804;BME280;25687;49.976;8.240;2023-03-21T01:42:51;100270.78;;;7.76;100.00
804;BME280;25687;49.976;8.240;2023-03-21T01:48:20;100271.56;;;7.78;100.00
804;BME280;25687;49.976;8.240;2023-03-21T01:50:47;100265.59;;;7.78;100.00
804;BME280;25687;49.976;8.240;2023-03-21T01:53:13;100268.16;;;7.78;100.00
804;BME280;25687;49.976;8.240;2023-03-21T01:55:39;100252.50;;;7.85;100.00
804;BME280;25687;49.976;8.240;2023-03-21T01:58:05;100258.78;;;7.78;100.00
804;BME280;25687;49.976;8.240;2023-03-21T02:00:33;100251.66;;;7.85;100.00
804;BME280;25687;49.976;8.240;2023-03-21T02:03:00;100255.19;;;7.82;100.00
804;BME280;25687;49.976;8.240;2023-03-21T02:08:00;100253.50;;;7.81;100.00
804;BME280;25687;49.976;8.240;2023-03-21T02:10:26;100251.88;;;7.80;100.00
804;BME280;25687;49.976;8.240;2023-03-21T02:12:56;100254.47;;;7.79;100.00
804;BME280;25687;49.976;8.240;2023-03-21T02:15:23;100248.47;;;7.80;100.00
804;BME280;25687;49.976;8.240;2023-03-21T02:17:56;100246.59;;;7.83;100.00
804;BME280;25687;49.976;8.240;2023-03-21T02:20:44;100242.38;;;7.82;100.00
804;BME280;25687;49.976;8.240;2023-03-21T02:28:38;100230.59;;;7.78;100.00
804;BME280;25687;49.976;8.240;2023-03-21T02:31:22;100227.88;;;7.83;100.00
804;BME280;25687;49.976;8.240;2023-03-21T02:36:57;100226.94;;;7.63;100.00
804;BME280;25687;49.976;8.240;2023-03-21T02:39:52;100238.84;;;7.64;100.00
804;BME280;25687;49.976;8.240;2023-03-21T02:45:09;100229.75;;;7.57;100.00
804;BME280;25687;49.976;8.240;2023-03-21T02:47:48;100222.81;;;7.59;100.00
804;BME280;25687;49.976;8.240;2023-03-21T02:50:21;100223.28;;;7.69;100.00
804;BME280;25687;49.976;8.240;2023-03-21T02:52:51;100219.72;;;7.73;100.00
804;BME280;25687;49.976;8.240;2023-03-21T02:55:24;100223.94;;;7.74;100.00
804;BME280;25687;49.976;8.240;2023-03-21T02:57:52;100227.34;;;7.74;100.00
804;BME280;25687;49.976;8.240;2023-03-21T03:00:20;100219.66;;;7.74;100.00
804;BME280;25687;49.976;8.240;2023-03-21T03:02:47;100221.25;;;7.77;100.00
804;BME280;25687;49.976;8.240;2023-03-21T03:05:19;100218.69;;;7.77;100.00
804;BME280;25687;49.976;8.240;2023-03-21T03:16:21;100208.16;;;7.42;100.00
804;BME280;25687;49.976;8.240;2023-03-21T03:18:54;100211.94;;;7.54;100.00
804;BME280;25687;49.976;8.240;2023-03-21T03:26:29;100210.44;;;7.70;100.00
804;BME280;25687;49.976;8.240;2023-03-21T03:29:01;100201.53;;;7.79;100.00
804;BME280;25687;49.976;8.240;2023-03-21T03:31:32;100208.00;;;7.88;100.00
804;BME280;25687;49.976;8.240;2023-03-21T03:34:08;100201.16;;;7.88;100.00
804;BME280;25687;49.976;8.240;2023-03-21T03:36:37;100197.28;;;7.99;100.00
804;BME280;25687;49.976;8.240;2023-03-21T03:39:06;100194.63;;;8.02;100.00
804;BME280;25687;49.976;8.240;2023-03-21T03:41:37;100185.16;;;8.04;100.00
804;BME280;25687;49.976;8.240;2023-03-21T03:44:05;100189.41;;;8.03;100.00
804;BME280;25687;49.976;8.240;2023-03-21T03:46:51;100189.94;;;7.91;100.00
804;BME280;25687;49.976;8.240;2023-03-21T03:49:22;100198.84;;;8.03;100.00
804;BME280;25687;49.976;8.240;2023-03-21T03:52:07;100190.81;;;8.11;100.00
804;BME280;25687;49.976;8.240;2023-03-21T03:54:37;100191.91;;;8.05;100.00
804;BME280;25687;49.976;8.240;2023-03-21T03:57:05;100191.59;;;7.92;100.00
804;BME280;25687;49.976;8.240;2023-03-21T03:59:35;100194.31;;;7.89;100.00
804;BME280;25687;49.976;8.240;2023-03-21T04:02:01;100183.47;;;7.82;100.00
804;BME280;25687;49.976;8.240;2023-03-21T04:04:27;100185.03;;;7.86;100.00
804;BME280;25687;49.976;8.240;2023-03-21T04:06:54;100191.94;;;7.84;100.00
804;BME280;25687;49.976;8.240;2023-03-21T04:09:20;100189.75;;;7.75;100.00
804;BME280;25687;49.976;8.240;2023-03-21T04:11:46;100199.03;;;7.57;100.00
804;BME280;25687;49.976;8.240;2023-03-21T04:14:11;100200.69;;;7.58;100.00
804;BME280;25687;49.976;8.240;2023-03-21T04:16:37;100195.38;;;7.63;100.00
804;BME280;25687;49.976;8.240;2023-03-21T04:19:03;100197.03;;;7.64;100.00
804;BME280;25687;49.976;8.240;2023-03-21T04:21:28;100208.94;;;7.65;100.00
804;BME280;25687;49.976;8.240;2023-03-21T04:23:54;100196.06;;;7.66;100.00
804;BME280;25687;49.976;8.240;2023-03-21T04:26:20;100194.38;;;7.67;100.00
804;BME280;25687;49.976;8.240;2023-03-21T04:28:46;100197.75;;;7.67;100.00
804;BME280;25687;49.976;8.240;2023-03-21T04:31:12;100204.16;;;7.57;100.00
804;BME280;25687;49.976;8.240;2023-03-21T04:33:38;100203.75;;;7.66;100.00
804;BME280;25687;49.976;8.240;2023-03-21T04:36:06;100207.81;;;7.72;100.00
804;BME280;25687;49.976;8.240;2023-03-21T04:38:33;100199.09;;;7.76;100.00
804;BME280;25687;49.976;8.240;2023-03-21T04:41:00;100197.75;;;7.67;100.00
804;BME280;25687;49.976;8.240;2023-03-21T04:43:26;100193.91;;;7.78;100.00
804;BME280;25687;49.976;8.240;2023-03-21T04:45:53;100195.91;;;7.91;100.00
804;BME280;25687;49.976;8.240;2023-03-21T04:48:18;100195.91;;;7.91;100.00
804;BME280;25687;49.976;8.240;2023-03-21T04:50:45;100191.28;;;8.00;100.00
804;BME280;25687;49.976;8.240;2023-03-21T04:53:11;100193.03;;;7.99;100.00
804;BME280;25687;49.976;8.240;2023-03-21T04:55:36;100197.88;;;8.05;100.00
804;BME280;25687;49.976;8.240;2023-03-21T04:58:03;100200.44;;;8.05;100.00
804;BME280;25687;49.976;8.240;2023-03-21T05:00:29;100189.03;;;8.13;100.00
804;BME280;25687;49.976;8.240;2023-03-21T05:02:54;100193.28;;;8.14;100.00
804;BME280;25687;49.976;8.240;2023-03-21T05:05:21;100182.00;;;7.97;100.00
804;BME280;25687;49.976;8.240;2023-03-21T05:07:46;100183.47;;;7.82;100.00
804;BME280;25687;49.976;8.240;2023-03-21T05:10:13;100177.59;;;7.80;100.00
804;BME280;25687;49.976;8.240;2023-03-21T05:12:38;100183.94;;;7.92;100.00
804;BME280;25687;49.976;8.240;2023-03-21T05:15:04;100182.63;;;8.02;100.00
804;BME280;25687;49.976;8.240;2023-03-21T05:17:30;100180.84;;;7.84;100.00
804;BME280;25687;49.976;8.240;2023-03-21T05:19:55;100179.38;;;7.99;100.00
804;BME280;25687;49.976;8.240;2023-03-21T05:22:22;100176.09;;;8.16;100.00
804;BME280;25687;49.976;8.240;2023-03-21T05:24:49;100176.09;;;8.16;100.00
804;BME280;25687;49.976;8.240;2023-03-21T05:27:18;100172.13;;;8.08;100.00
804;BME280;25687;49.976;8.240;2023-03-21T05:30:04;100163.63;;;7.87;100.00
804;BME280;25687;49.976;8.240;2023-03-21T05:32:29;100161.16;;;8.05;100.00
804;BME280;25687;49.976;8.240;2023-03-21T05:34:55;100154.63;;;8.18;100.00
804;BME280;25687;49.976;8.240;2023-03-21T05:37:21;100166.97;;;8.29;100.00
804;BME280;25687;49.976;8.240;2023-03-21T05:39:46;100166.31;;;8.45;100.00
804;BME280;25687;49.976;8.240;2023-03-21T05:42:12;100173.25;;;8.62;100.00
804;BME280;25687;49.976;8.240;2023-03-21T05:44:37;100172.78;;;8.72;100.00
804;BME280;25687;49.976;8.240;2023-03-21T05:47:04;100173.31;;;8.79;100.00
804;BME280;25687;49.976;8.240;2023-03-21T05:49:30;100178.09;;;8.87;100.00
804;BME280;25687;49.976;8.240;2023-03-21T05:51:55;100171.84;;;8.93;100.00
804;BME280;25687;49.976;8.240;2023-03-21T05:54:21;100170.75;;;8.79;100.00
804;BME280;25687;49.976;8.240;2023-03-21T05:56:46;100177.47;;;8.82;100.00
804;BME280;25687;49.976;8.240;2023-03-21T05:59:11;100179.50;;;8.75;100.00
804;BME280;25687;49.976;8.240;2023-03-21T06:01:36;100171.09;;;8.91;100.00
804;BME280;25687;49.976;8.240;2023-03-21T06:04:02;100169.69;;;9.02;100.00
804;BME280;25687;49.976;8.240;2023-03-21T06:06:27;100173.75;;;9.07;100.00
804;BME280;25687;49.976;8.240;2023-03-21T06:08:52;100174.16;;;9.16;100.00
804;BME280;25687;49.976;8.240;2023-03-21T06:11:38;100180.94;;;9.00;100.00
804;BME280;25687;49.976;8.240;2023-03-21T06:14:06;100170.84;;;9.14;100.00
804;BME280;25687;49.976;8.240;2023-03-21T06:16:31;100167.53;;;9.12;100.00
804;BME280;25687;49.976;8.240;2023-03-21T06:18:56;100170.59;;;9.01;100.00
804;BME280;25687;49.976;8.240;2023-03-21T06:21:21;100167.00;;;9.06;100.00
804;BME280;25687;49.976;8.240;2023-03-21T06:23:47;100174.97;;;8.99;100.00
804;BME280;25687;49.976;8.240;2023-03-21T06:26:15;100164.06;;;9.13;100.00
804;BME280;25687;49.976;8.240;2023-03-21T06:28:43;100165.28;;;9.24;100.00
804;BME280;25687;49.976;8.240;2023-03-21T06:31:09;100166.91;;;9.61;100.00
804;BME280;25687;49.976;8.240;2023-03-21T06:33:34;100166.03;;;9.78;100.00
804;BME280;25687;49.976;8.240;2023-03-21T06:35:59;100167.03;;;10.09;100.00
804;BME280;25687;49.976;8.240;2023-03-21T06:38:25;100172.69;;;9.82;100.00
804;BME280;25687;49.976;8.240;2023-03-21T06:40:51;100172.41;;;10.05;100.00
804;BME280;25687;49.976;8.240;2023-03-21T06:43:16;100177.91;;;10.32;100.00
804;BME280;25687;49.976;8.240;2023-03-21T06:45:42;100180.69;;;10.61;100.00
804;BME280;25687;49.976;8.240;2023-03-21T06:48:08;100182.44;;;10.76;100.00
804;BME280;25687;49.976;8.240;2023-03-21T06:50:33;100179.09;;;10.42;100.00
804;BME280;25687;49.976;8.240;2023-03-21T06:52:59;100180.13;;;10.22;100.00
804;BME280;25687;49.976;8.240;2023-03-21T06:55:25;100176.03;;;10.52;100.00
804;BME280;25687;49.976;8.240;2023-03-21T06:57:55;100171.91;;;10.65;100.00
804;BME280;25687;49.976;8.240;2023-03-21T07:00:22;100178.19;;;10.75;100.00
804;BME280;25687;49.976;8.240;2023-03-21T07:02:48;100174.56;;;10.79;100.00
804;BME280;25687;49.976;8.240;2023-03-21T07:05:15;100187.56;;;10.92;100.00
804;BME280;25687;49.976;8.240;2023-03-21T07:07:40;100194.16;;;10.82;100.00
804;BME280;25687;49.976;8.240;2023-03-21T07:10:07;100198.44;;;10.81;100.00
804;BME280;25687;49.976;8.240;2023-03-21T07:12:33;100191.41;;;10.36;100.00
804;BME280;25687;49.976;8.240;2023-03-21T07:15:03;100193.78;;;10.56;100.00
804;BME280;25687;49.976;8.240;2023-03-21T07:17:29;100188.63;;;10.40;100.00
804;BME280;25687;49.976;8.240;2023-03-21T07:19:54;100191.94;;;11.22;100.00
804;BME280;25687;49.976;8.240;2023-03-21T07:22:20;100192.03;;;11.21;100.00
804;BME280;25687;49.976;8.240;2023-03-21T07:24:45;100191.78;;;11.25;100.00
804;BME280;25687;49.976;8.240;2023-03-21T07:27:13;100192.13;;;11.50;100.00
804;BME280;25687;49.976;8.240;2023-03-21T07:29:39;100182.78;;;11.63;100.00
804;BME280;25687;49.976;8.240;2023-03-21T07:32:04;100191.03;;;11.84;100.00
804;BME280;25687;49.976;8.240;2023-03-21T07:34:30;100193.41;;;12.47;100.00
804;BME280;25687;49.976;8.240;2023-03-21T07:36:57;100192.53;;;12.61;100.00
804;BME280;25687;49.976;8.240;2023-03-21T07:39:22;100189.97;;;13.02;100.00
804;BME280;25687;49.976;8.240;2023-03-21T07:41:47;100179.72;;;13.01;100.00
804;BME280;25687;49.976;8.240;2023-03-21T07:44:13;100186.97;;;13.36;100.00
804;BME280;25687;49.976;8.240;2023-03-21T07:46:38;100196.47;;;13.35;100.00
804;BME280;25687;49.976;8.240;2023-03-21T07:49:03;100187.97;;;13.33;100.00
804;BME280;25687;49.976;8.240;2023-03-21T07:51:30;100189.94;;;13.57;100.00
804;BME280;25687;49.976;8.240;2023-03-21T07:53:55;100182.91;;;13.98;100.00
804;BME280;25687;49.976;8.240;2023-03-21T07:56:20;100185.63;;;14.22;99.36
804;BME280;25687;49.976;8.240;2023-03-21T07:58:45;100190.03;;;13.55;100.00
804;BME280;25687;49.976;8.240;2023-03-21T08:01:11;100190.25;;;13.25;100.00
804;BME280;25687;49.976;8.240;2023-03-21T08:03:36;100187.84;;;13.49;100.00
804;BME280;25687;49.976;8.240;2023-03-21T08:06:01;100189.84;;;13.71;100.00
804;BME280;25687;49.976;8.240;2023-03-21T08:08:27;100185.19;;;13.64;100.00
804;BME280;25687;49.976;8.240;2023-03-21T08:10:52;100184.47;;;13.87;100.00
804;BME280;25687;49.976;8.240;2023-03-21T08:13:17;100182.53;;;14.17;100.00
804;BME280;25687;49.976;8.240;2023-03-21T08:15:43;100181.72;;;13.91;99.22
804;BME280;25687;49.976;8.240;2023-03-21T08:18:09;100183.53;;;13.50;100.00
804;BME280;25687;49.976;8.240;2023-03-21T08:20:34;100183.94;;;13.56;100.00
804;BME280;25687;49.976;8.240;2023-03-21T08:23:00;100185.41;;;13.86;97.60
804;BME280;25687;49.976;8.240;2023-03-21T08:25:25;100183.63;;;13.74;97.09
804;BME280;25687;49.976;8.240;2023-03-21T08:27:51;100180.66;;;13.67;96.12
804;BME280;25687;49.976;8.240;2023-03-21T08:30:19;100176.69;;;13.62;91.71
804;BME280;25687;49.976;8.240;2023-03-21T08:32:44;100182.63;;;13.90;91.41
804;BME280;25687;49.976;8.240;2023-03-21T08:35:12;100184.66;;;14.36;91.35
804;BME280;25687;49.976;8.240;2023-03-21T08:37:40;100189.16;;;14.58;88.27
804;BME280;25687;49.976;8.240;2023-03-21T08:40:08;100185.63;;;14.09;83.79
804;BME280;25687;49.976;8.240;2023-03-21T08:42:38;100195.03;;;14.10;89.41
804;BME280;25687;49.976;8.240;2023-03-21T08:45:03;100188.81;;;14.00;90.69
804;BME280;25687;49.976;8.240;2023-03-21T08:47:30;100187.38;;;13.96;88.86
804;BME280;25687;49.976;8.240;2023-03-21T08:49:56;100190.81;;;14.09;90.48
804;BME280;25687;49.976;8.240;2023-03-21T08:52:21;100188.50;;;14.17;90.95
804;BME280;25687;49.976;8.240;2023-03-21T08:54:46;100187.06;;;14.13;91.69
804;BME280;25687;49.976;8.240;2023-03-21T08:57:12;100195.25;;;13.94;94.46
804;BME280;25687;49.976;8.240;2023-03-21T08:59:39;100197.72;;;13.70;98.56
804;BME280;25687;49.976;8.240;2023-03-21T09:02:05;100190.16;;;13.67;95.98
804;BME280;25687;49.976;8.240;2023-03-21T09:04:31;100197.53;;;13.73;96.33
804;BME280;25687;49.976;8.240;2023-03-21T09:06:57;100188.72;;;13.35;99.27
804;BME280;25687;49.976;8.240;2023-03-21T09:09:25;100192.06;;;13.37;95.58
804;BME280;25687;49.976;8.240;2023-03-21T09:11:52;100195.53;;;13.23;97.92
804;BME280;25687;49.976;8.240;2023-03-21T09:14:17;100195.94;;;13.30;98.54
804;BME280;25687;49.976;8.240;2023-03-21T09:16:42;100190.16;;;12.99;97.06
804;BME280;25687;49.976;8.240;2023-03-21T09:19:07;100194.28;;;13.02;96.04
804;BME280;25687;49.976;8.240;2023-03-21T09:21:33;100195.94;;;13.03;95.54
804;BME280;25687;49.976;8.240;2023-03-21T09:23:58;100194.88;;;13.20;98.50
804;BME280;25687;49.976;8.240;2023-03-21T09:26:25;100198.00;;;13.25;99.13
804;BME280;25687;49.976;8.240;2023-03-21T09:28:52;100193.97;;;13.21;98.34
804;BME280;25687;49.976;8.240;2023-03-21T09:31:17;100203.59;;;13.04;100.00
804;BME280;25687;49.976;8.240;2023-03-21T09:33:45;100197.25;;;13.50;97.38
804;BME280;25687;49.976;8.240;2023-03-21T09:36:12;100185.31;;;13.75;95.47
804;BME280;25687;49.976;8.240;2023-03-21T09:38:43;100191.09;;;14.30;93.88
804;BME280;25687;49.976;8.240;2023-03-21T09:46:52;100195.81;;;13.59;93.01
804;BME280;25687;49.976;8.240;2023-03-21T09:49:27;100196.34;;;13.51;95.24
804;BME280;25687;49.976;8.240;2023-03-21T09:51:57;100200.63;;;13.38;94.98
804;BME280;25687;49.976;8.240;2023-03-21T09:54:36;100197.88;;;13.41;93.28
804;BME280;25687;49.976;8.240;2023-03-21T09:57:13;100187.63;;;13.39;92.51
804;BME280;25687;49.976;8.240;2023-03-21T09:59:43;100195.22;;;13.01;97.25
804;BME280;25687;49.976;8.240;2023-03-21T10:02:42;100202.16;;;12.86;100.00
804;BME280;25687;49.976;8.240;2023-03-21T10:05:23;100194.00;;;13.06;100.00
804;BME280;25687;49.976;8.240;2023-03-21T10:07:52;100195.97;;;13.16;100.00
804;BME280;25687;49.976;8.240;2023-03-21T10:10:24;100195.13;;;13.02;100.00
804;BME280;25687;49.976;8.240;2023-03-21T10:12:52;100194.50;;;12.99;100.00
804;BME280;25687;49.976;8.240;2023-03-21T10:15:20;100187.94;;;12.93;100.00
804;BME280;25687;49.976;8.240;2023-03-21T10:17:51;100196.94;;;13.15;100.00
804;BME280;25687;49.976;8.240;2023-03-21T10:20:20;100190.44;;;12.95;100.00
804;BME280;25687;49.976;8.240;2023-03-21T10:22:49;100190.56;;;12.79;100.00
804;BME280;25687;49.976;8.240;2023-03-21T10:25:35;100188.09;;;12.77;100.00
804;BME280;25687;49.976;8.240;2023-03-21T10:28:03;100188.34;;;12.87;100.00
804;BME280;25687;49.976;8.240;2023-03-21T10:30:36;100185.34;;;13.07;100.00
804;BME280;25687;49.976;8.240;2023-03-21T10:33:05;100184.72;;;13.17;100.00
804;BME280;25687;49.976;8.240;2023-03-21T10:35:34;100181.88;;;12.94;100.00
804;BME280;25687;49.976;8.240;2023-03-21T10:38:01;100187.00;;;13.08;100.00
804;BME280;25687;49.976;8.240;2023-03-21T10:40:27;100186.22;;;13.21;100.00
804;BME280;25687;49.976;8.240;2023-03-21T10:43:14;100191.47;;;12.92;100.00
804;BME280;25687;49.976;8.240;2023-03-21T10:45:40;100190.03;;;13.01;100.00
804;BME280;25687;49.976;8.240;2023-03-21T10:48:08;100191.41;;;13.06;100.00
804;BME280;25687;49.976;8.240;2023-03-21T10:50:34;100186.47;;;12.62;100.00
804;BME280;25687;49.976;8.240;2023-03-21T10:53:00;100193.63;;;12.71;100.00
804;BME280;25687;49.976;8.240;2023-03-21T10:55:28;100195.34;;;12.85;100.00
804;BME280;25687;49.976;8.240;2023-03-21T10:57:59;100197.22;;;12.83;100.00
804;BME280;25687;49.976;8.240;2023-03-21T11:00:29;100189.16;;;12.87;100.00
804;BME280;25687;49.976;8.240;2023-03-21T11:02:58;100191.34;;;12.94;100.00
804;BME280;25687;49.976;8.240;2023-03-21T11:05:37;100195.56;;;12.67;100.00
804;BME280;25687;49.976;8.240;2023-03-21T11:08:06;100187.66;;;12.56;100.00
804;BME280;25687;49.976;8.240;2023-03-21T11:10:37;100191.28;;;12.24;100.00
804;BME280;25687;49.976;8.240;2023-03-21T11:13:26;100174.78;;;11.98;100.00
804;BME280;25687;49.976;8.240;2023-03-21T11:16:04;100186.84;;;12.26;100.00
804;BME280;25687;49.976;8.240;2023-03-21T11:18:31;100187.88;;;12.24;100.00
804;BME280;25687;49.976;8.240;2023-03-21T11:21:02;100182.53;;;12.13;100.00
804;BME280;25687;49.976;8.240;2023-03-21T11:23:29;100177.19;;;12.45;100.00
804;BME280;25687;49.976;8.240;2023-03-21T11:25:58;100175.41;;;12.59;100.00
804;BME280;25687;49.976;8.240;2023-03-21T11:28:28;100175.56;;;12.56;100.00
804;BME280;25687;49.976;8.240;2023-03-21T11:30:59;100168.56;;;12.58;100.00
804;BME280;25687;49.976;8.240;2023-03-21T11:33:49;100162.63;;;12.43;100.00
804;BME280;25687;49.976;8.240;2023-03-21T11:39:12;100166.97;;;12.00;100.00
804;BME280;25687;49.976;8.240;2023-03-21T11:41:40;100153.34;;;12.12;100.00
804;BME280;25687;49.976;8.240;2023-03-21T11:44:26;100150.84;;;12.25;100.00
804;BME280;25687;49.976;8.240;2023-03-21T11:46:52;100147.34;;;12.40;100.00
804;BME280;25687;49.976;8.240;2023-03-21T11:49:19;100150.50;;;12.58;100.00
804;BME280;25687;49.976;8.240;2023-03-21T11:51:57;100142.91;;;12.84;100.00
804;BME280;25687;49.976;8.240;2023-03-21T11:57:29;100136.28;;;13.07;100.00
804;BME280;25687;49.976;8.240;2023-03-21T12:00:18;100129.38;;;12.24;100.00
804;BME280;25687;49.976;8.240;2023-03-21T12:02:53;100132.72;;;12.68;100.00
804;BME280;25687;49.976;8.240;2023-03-21T12:05:31;100130.09;;;12.55;100.00
804;BME280;25687;49.976;8.240;2023-03-21T12:08:08;100131.56;;;12.45;100.00
804;BME280;25687;49.976;8.240;2023-03-21T12:10:50;100131.22;;;12.22;100.00
804;BME280;25687;49.976;8.240;2023-03-21T12:13:39;100125.59;;;11.72;100.00
804;BME280;25687;49.976;8.240;2023-03-21T12:23:59;100122.38;;;12.26;100.00
804;BME280;25687;49.976;8.240;2023-03-21T12:26:39;100112.91;;;12.13;100.00
804;BME280;25687;49.976;8.240;2023-03-21T12:31:58;100101.84;;;12.25;100.00
804;BME280;25687;49.976;8.240;2023-03-21T12:34:32;100094.63;;;12.45;100.00
804;BME280;25687;49.976;8.240;2023-03-21T12:37:16;100090.25;;;12.59;100.00
804;BME280;25687;49.976;8.240;2023-03-21T12:39:48;100090.25;;;13.00;100.00
804;BME280;25687;49.976;8.240;2023-03-21T12:42:39;100080.56;;;13.03;100.00
804;BME280;25687;49.976;8.240;2023-03-21T12:45:19;100074.13;;;12.83;100.00
804;BME280;25687;49.976;8.240;2023-03-21T12:47:51;100069.59;;;12.87;100.00
804;BME280;25687;49.976;8.240;2023-03-21T12:50:24;100082.03;;;13.07;100.00
804;BME280;25687;49.976;8.240;2023-03-21T12:52:58;100074.28;;;13.07;100.00
804;BME280;25687;49.976;8.240;2023-03-21T12:55:29;100076.25;;;13.17;100.00
804;BME280;25687;49.976;8.240;2023-03-21T12:58:10;100073.53;;;12.93;100.00
804;BME280;25687;49.976;8.240;2023-03-21T13:00:52;100078.50;;;12.68;100.00
804;BME280;25687;49.976;8.240;2023-03-21T13:03:22;100066.88;;;12.75;100.00
804;BME280;25687;49.976;8.240;2023-03-21T13:06:09;100072.06;;;12.88;100.00
804;BME280;25687;49.976;8.240;2023-03-21T13:08:45;100067.16;;;12.71;100.00
804;BME280;25687;49.976;8.240;2023-03-21T13:11:14;100061.34;;;12.95;100.00
804;BME280;25687;49.976;8.240;2023-03-21T13:13:55;100063.69;;;12.57;100.00
804;BME280;25687;49.976;8.240;2023-03-21T13:19:35;100056.22;;;12.40;100.00
804;BME280;25687;49.976;8.240;2023-03-21T13:24:47;100049.28;;;12.13;100.00
804;BME280;25687;49.976;8.240;2023-03-21T13:29:51;100040.59;;;12.29;100.00
804;BME280;25687;49.976;8.240;2023-03-21T13:32:30;100035.56;;;12.13;100.00
804;BME280;25687;49.976;8.240;2023-03-21T13:35:03;100036.41;;;11.99;100.00
804;BME280;25687;49.976;8.240;2023-03-21T13:37:41;100036.00;;;11.90;100.00
804;BME280;25687;49.976;8.240;2023-03-21T13:40:22;100039.34;;;11.49;100.00
804;BME280;25687;49.976;8.240;2023-03-21T13:42:54;100038.41;;;11.21;100.00
804;BME280;25687;49.976;8.240;2023-03-21T13:45:26;100037.06;;;11.00;100.00
804;BME280;25687;49.976;8.240;2023-03-21T13:47:59;100032.25;;;10.93;100.00
804;BME280;25687;49.976;8.240;2023-03-21T13:50:51;100029.13;;;10.88;100.00
804;BME280;25687;49.976;8.240;2023-03-21T13:53:23;100025.22;;;11.11;100.00
804;BME280;25687;49.976;8.240;2023-03-21T13:56:06;100023.47;;;11.12;100.00
804;BME280;25687;49.976;8.240;2023-03-21T13:58:39;100018.31;;;11.12;100.00
804;BME280;25687;49.976;8.240;2023-03-21T14:01:34;100025.53;;;11.21;100.00
804;BME280;25687;49.976;8.240;2023-03-21T14:09:38;100009.81;;;11.55;100.00
804;BME280;25687;49.976;8.240;2023-03-21T14:12:09;100011.56;;;11.69;100.00
804;BME280;25687;49.976;8.240;2023-03-21T14:14:42;100004.75;;;11.68;100.00
804;BME280;25687;49.976;8.240;2023-03-21T14:17:25;100004.19;;;11.19;100.00
804;BME280;25687;49.976;8.240;2023-03-21T14:19:56;99995.59;;;11.19;100.00
804;BME280;25687;49.976;8.240;2023-03-21T14:22:23;99985.38;;;10.88;100.00
804;BME280;25687;49.976;8.240;2023-03-21T14:25:00;99972.81;;;10.68;100.00